East Orleans, MA

1:57 AM EDT on September 16, 2014 (GMT -0400)
Muddy Pond | Change Station
CLOSE
Current Station
Personal Weather Station
Location: Eastham, MA
Elevation: 16 ft
Nearby Weather Stations

Elev 16 ft 41.83 °N, 69.98 °W | Updated 31 seconds ago

Overcast
Overcast
55.6 °F
Feels Like 55.6 °F
N
0.0
Wind Variable Wind from NE
Gusts 0.0 mph

Today
High -- | Low -- °F
--% Chance of Precip.
Yesterday
High -- | Low -- °F
Precip. -- in
6:21 AM 6:47 PM
Waning Gibbous, 48% visible
Pressure 30.11 in
Visibility 10.0 miles
Clouds Overcast 5000 ft
Dew Point 9 °F
Humidity 15%
Rainfall 0.00 in
Snow Depth Not available.
UV 0 out of 12
Pollen 3.20 out of 12
Air Quality Not available.
Flu Activity Not available.
METAR KCQX 160552Z AUTO 00000KT 10SM OVC050 14/10 A3010 RMK AO2 SLP195 T01440100 10144 20106 56010

More Conditions Fewer Conditions

Pressure 30.11 in
Visibility 10.0 miles
Clouds Overcast 5000 ft
Dew Point 9 °F
Humidity 15%
Rainfall 0.00 in
Snow Depth Not available.
UV 0 out of 12
Pollen 3.20 out of 12
Air Quality Not available.
Flu Activity Not available.
METAR KCQX 160552Z AUTO 00000KT 10SM OVC050 14/10 A3010 RMK AO2 SLP195 T01440100 10144 20106 56010

More Conditions Fewer Conditions

10-Day Weather Forecast

Almanac

Astronomy

Sep. 16, 2014 Rise Set
Actual Time 6:21 AM EDT 6:47 PM EDT
Civil Twilight 5:53 AM EDT 7:15 PM EDT
Nautical Twilight 5:20 AM EDT 7:48 PM EDT
Astronomical Twilight 4:46 AM EDT 8:21 PM EDT
Moon No Moon Rise 2:12 PM EDT
Length of Visible Light 13h 22m
Length of Day
12h 26m
Tomorrow will be 2m 45s shorter.
Waning Gibbous, 48% of the Moon is Illuminated
Today
Waning Gibbous
Sep 24
New
Oct 1
First Quarter
Oct 8
Full
Oct 15
Last Quarter

Today's Extremes

State Highs State Lows

Community

WunderPhotos

Upload Photos

1,753,702 photos uploaded!

Nearby

Air Quality

  Air Quality AQ Index Pollutant
Yesterday Good
OZONE
Tuesday Good
PM2.5
Tuesday Good
OZONE

Snow Depth

Station Depth Elevation
No new snow has been reported.

Earthquake Activity

City Distance Mag. Time & Date
No recent earthquake activity has been reported nearby.
Minimum magnitude displayed is 2.5.

Coastal Water Temperatures

Place Temperature
Nantucket Island, MA 68.0 °F
Woods Hole, MA 69.1 °F
Fall River, MA 72.0 °F
Boston, MA 63.0 °F

Nearby Weather Stations